Johnson, Arizona
Current Conditions -  °F | °C
As of 11:56 PM on Saturday 22 Nov 2014 (Local Time) from KFHU Reporting Station
Clear Clear  
Wind Chill: 38°   Ceiling: Unl
Heat Index: 42°   Visibility: 10mi
Dew Point: 25°   Wind: 6mph
Humidity: 51%   Direction: 300°WNW
Pressure: 30.06"   Gusts: NA
Location:  32.0129°N, 110.105°W
Report Text: KFHU 230656Z AUTO 30005KT 10SM CLR 06/M04 A3006 RMK AO2 SLP155 T00561039 401890017 $
Loading
Personal Weather Stations






























Interactive Weather Map New forecast layout! Learn more

10-Day Weather Forecast

Advertisements
Track Severe Weather on mobile